Time;durP1;ratioP1;P1;durP2;ratioP2;P2;SDS_P1;SDS_P2;PMS_P1;PMS_P2;Temp;Humidity;BMP_temperature;BMP_pressure;BME280_temperature;BME280_humidity;BME280_pressure;Samples;Min_cycle;Max_cycle;Signal;HPM_P1;HPM_P2
2023/12/16 00:02:03;;;;;;;31.53;15.70;;;;;;;7.84;93.02;102621.19;4990227;28;20926;-78
2023/12/16 00:04:30;;;;;;;23.57;15.10;;;;;;;7.93;93.01;102621.47;4990504;28;20217;-78
2023/12/16 00:06:56;;;;;;;26.07;15.33;;;;;;;7.54;93.87;102631.63;4983312;28;20228;-78
2023/12/16 00:09:22;;;;;;;26.30;15.57;;;;;;;7.53;93.80;102603.84;4984158;28;20248;-78
2023/12/16 00:11:49;;;;;;;21.43;14.43;;;;;;;7.38;94.67;102574.84;4989614;28;20845;-77
2023/12/16 00:14:15;;;;;;;24.77;13.50;;;;;;;7.31;95.22;102560.78;4992967;28;20207;-77
2023/12/16 00:16:44;;;;;;;29.97;14.47;;;;;;;7.64;94.36;102545.25;4991907;28;20269;-78
2023/12/16 00:19:11;;;;;;;23.33;14.57;;;;;;;7.49;94.11;102566.53;4992941;28;20273;-78
2023/12/16 00:21:38;;;;;;;28.47;13.73;;;;;;;7.81;93.24;102560.44;4992101;28;20209;-79
2023/12/16 00:24:06;;;;;;;17.07;13.20;;;;;;;7.62;93.43;102580.72;4984665;28;20221;-77
2023/12/16 00:26:32;;;;;;;27.40;16.20;;;;;;;7.42;94.05;102574.97;4992972;28;20278;-78
2023/12/16 00:28:59;;;;;;;28.27;15.43;;;;;;;7.59;94.17;102564.16;4992855;28;20205;-78
2023/12/16 00:31:25;;;;;;;30.70;15.50;;;;;;;7.58;94.02;102570.22;4987461;28;20214;-76
2023/12/16 00:33:51;;;;;;;22.17;14.20;;;;;;;7.71;92.93;102582.69;4991085;28;20613;-78
2023/12/16 00:36:19;;;;;;;27.20;13.70;;;;;;;7.64;93.01;102591.19;4991958;28;20554;-77
2023/12/16 00:38:45;;;;;;;27.63;13.93;;;;;;;7.69;92.86;102597.38;4992905;28;20742;-78
2023/12/16 00:41:12;;;;;;;27.77;12.93;;;;;;;7.76;93.03;102610.59;4992634;28;20232;-79
2023/12/16 00:43:39;;;;;;;22.80;13.93;;;;;;;7.89;92.38;102621.34;4992075;28;20239;-78
2023/12/16 00:46:05;;;;;;;34.50;14.33;;;;;;;7.90;91.37;102647.38;4995649;28;20272;-78
2023/12/16 00:48:31;;;;;;;22.90;13.33;;;;;;;7.65;92.30;102642.31;4996589;28;20210;-78
2023/12/16 00:50:58;;;;;;;24.73;13.67;;;;;;;7.56;93.81;102612.63;4996380;28;20694;-78
2023/12/16 00:53:25;;;;;;;22.17;13.13;;;;;;;7.59;93.41;102603.16;4995798;28;20773;-77
2023/12/16 00:55:52;;;;;;;26.53;12.40;;;;;;;7.76;92.50;102605.38;4996376;28;20315;-78
2023/12/16 00:58:18;;;;;;;17.30;12.30;;;;;;;7.72;92.53;102620.88;4996440;28;20234;-77
2023/12/16 01:00:45;;;;;;;19.07;11.83;;;;;;;7.83;92.21;102622.06;4995724;28;20682;-78
2023/12/16 01:03:11;;;;;;;23.13;12.13;;;;;;;7.89;91.50;102632.63;4996517;28;20730;-78
2023/12/16 01:05:38;;;;;;;20.03;11.73;;;;;;;7.90;91.57;102638.69;4996092;28;20245;-78
2023/12/16 01:08:05;;;;;;;23.60;11.87;;;;;;;7.91;91.66;102659.53;4995371;28;20235;-78
2023/12/16 01:10:32;;;;;;;17.93;11.47;;;;;;;7.99;91.16;102656.25;4995925;28;20582;-78
2023/12/16 01:12:59;;;;;;;19.47;11.67;;;;;;;8.03;91.38;102652.94;4995610;28;20294;-78
2023/12/16 01:15:25;;;;;;;17.97;10.70;;;;;;;8.04;91.38;102647.75;4995442;28;20206;-78
2023/12/16 01:17:51;;;;;;;20.90;11.70;;;;;;;7.90;91.42;102652.56;4995039;28;20204;-78
2023/12/16 01:20:18;;;;;;;26.87;12.00;;;;;;;7.98;91.34;102655.38;4995881;28;20210;-78
2023/12/16 01:22:44;;;;;;;17.73;10.43;;;;;;;8.00;91.22;102658.03;4995023;28;20227;-78
2023/12/16 01:25:10;;;;;;;17.53;9.70;;;;;;;8.11;91.17;102656.63;4987479;28;20233;-78
2023/12/16 01:27:38;;;;;;;12.17;9.33;;;;;;;7.97;90.85;102661.44;4995274;28;20242;-78
2023/12/16 01:30:06;;;;;;;21.30;9.97;;;;;;;8.04;90.99;102665.94;4992465;28;20334;-79
2023/12/16 01:32:33;;;;;;;16.30;9.87;;;;;;;7.99;91.04;102649.34;4990391;28;20653;-78
2023/12/16 01:34:59;;;;;;;16.53;9.93;;;;;;;8.12;90.49;102655.75;4994836;28;20626;-79
2023/12/16 01:37:26;;;;;;;17.53;9.70;;;;;;;8.05;90.46;102669.47;4995035;28;20269;-79
2023/12/16 01:39:53;;;;;;;17.07;9.60;;;;;;;8.08;89.47;102674.72;4995475;28;20259;-78
2023/12/16 01:42:19;;;;;;;19.00;9.07;;;;;;;8.10;88.78;102699.94;4994780;28;20240;-79
2023/12/16 01:44:47;;;;;;;15.53;8.43;;;;;;;8.26;88.86;102695.16;4994997;28;20205;-79
2023/12/16 01:47:13;;;;;;;12.63;8.97;;;;;;;8.36;89.26;102702.34;4995404;28;20228;-78
2023/12/16 01:49:40;;;;;;;19.97;9.07;;;;;;;8.36;88.69;102715.38;4999654;28;20696;-78
2023/12/16 01:52:07;;;;;;;16.17;8.43;;;;;;;8.24;88.19;102735.88;5003247;28;20215;-78
2023/12/16 01:54:34;;;;;;;21.20;9.90;;;;;;;8.26;88.12;102753.28;5007446;28;20266;-79
2023/12/16 01:57:03;;;;;;;11.63;8.37;;;;;;;8.37;87.85;102753.59;5007096;28;20215;-78
2023/12/16 01:59:29;;;;;;;12.83;7.83;;;;;;;8.43;87.39;102755.50;5005700;28;20302;-76
2023/12/16 02:01:59;;;;;;;16.77;9.13;;;;;;;8.30;86.44;102777.66;4994508;28;20262;-76
2023/12/16 02:04:26;;;;;;;14.37;7.33;;;;;;;8.35;87.44;102773.47;4993811;28;20291;-76
2023/12/16 02:06:52;;;;;;;14.93;7.53;;;;;;;8.30;87.27;102781.13;4992893;28;20234;-76
2023/12/16 02:09:19;;;;;;;10.73;7.87;;;;;;;8.33;86.75;102795.97;4993995;28;20203;-76
2023/12/16 02:11:46;;;;;;;12.60;7.33;;;;;;;8.45;86.14;102798.06;4993829;28;20268;-76
2023/12/16 02:14:12;;;;;;;11.07;7.33;;;;;;;8.49;86.84;102789.50;4993332;28;20229;-76
2023/12/16 02:16:39;;;;;;;11.23;7.20;;;;;;;8.22;86.69;102789.56;4993697;28;20720;-77
2023/12/16 02:19:11;;;;;;;11.90;7.50;;;;;;;8.22;86.13;102784.38;4993537;28;20252;-77
2023/12/16 02:21:37;;;;;;;12.67;6.67;;;;;;;8.37;86.38;102783.94;4993302;28;20251;-77
2023/12/16 02:24:06;;;;;;;9.40;6.97;;;;;;;8.47;86.39;102788.59;4993436;28;20231;-77
2023/12/16 02:26:32;;;;;;;10.63;6.57;;;;;;;8.47;85.79;102812.88;4993616;28;20223;-76
2023/12/16 02:28:58;;;;;;;15.37;7.23;;;;;;;8.21;84.87;102819.91;4993420;28;20215;-76
2023/12/16 02:31:25;;;;;;;9.57;6.93;;;;;;;8.26;85.70;102830.44;4993205;28;20270;-76
2023/12/16 02:33:51;;;;;;;9.93;6.37;;;;;;;8.11;85.63;102829.19;4993211;28;20277;-77
2023/12/16 02:36:17;;;;;;;15.30;6.73;;;;;;;8.16;85.58;102822.38;4992985;28;20258;-76
2023/12/16 02:38:44;;;;;;;9.93;6.63;;;;;;;7.87;85.89;102828.41;4993355;28;20239;-76
2023/12/16 02:41:10;;;;;;;11.03;6.43;;;;;;;7.73;85.79;102834.09;4993303;28;20284;-76
2023/12/16 02:43:37;;;;;;;13.57;6.47;;;;;;;7.99;86.19;102831.41;4992679;28;20243;-76
2023/12/16 02:46:03;;;;;;;12.53;6.73;;;;;;;7.84;85.85;102823.13;4992671;28;20283;-76
2023/12/16 02:48:30;;;;;;;11.43;5.80;;;;;;;8.01;86.10;102808.03;4992349;28;20207;-76
2023/12/16 02:50:56;;;;;;;14.70;6.53;;;;;;;8.10;85.20;102813.50;4993146;28;20281;-78
2023/12/16 02:53:22;;;;;;;11.67;6.37;;;;;;;8.12;83.95;102846.53;4993302;28;20639;-76
2023/12/16 02:55:49;;;;;;;11.97;5.70;;;;;;;8.16;83.47;102858.78;4993174;28;20202;-75
2023/12/16 02:58:17;;;;;;;10.50;5.73;;;;;;;8.16;82.81;102876.13;4992775;28;20206;-77
2023/12/16 03:00:43;;;;;;;10.40;5.27;;;;;;;8.29;83.07;102877.41;4992767;28;20689;-77
2023/12/16 03:03:10;;;;;;;16.57;5.83;;;;;;;8.12;82.47;102893.34;4992162;28;20721;-77
2023/12/16 03:05:37;;;;;;;10.13;5.20;;;;;;;8.14;83.59;102881.28;4992717;28;20206;-76
2023/12/16 03:08:03;;;;;;;8.27;4.77;;;;;;;8.24;82.77;102881.56;4991932;28;20254;-77
2023/12/16 03:10:29;;;;;;;10.50;4.97;;;;;;;8.24;81.85;102905.84;4992913;28;20253;-77
2023/12/16 03:12:57;;;;;;;11.33;5.17;;;;;;;7.95;81.97;102937.06;4992341;28;20260;-77
2023/12/16 03:15:24;;;;;;;9.87;4.97;;;;;;;7.95;81.72;102942.25;4991153;28;20240;-76
2023/12/16 03:17:51;;;;;;;6.03;4.77;;;;;;;8.04;81.89;102943.38;4992336;28;20259;-76
2023/12/16 03:20:18;;;;;;;6.57;4.80;;;;;;;8.12;80.89;102962.72;4992559;28;20207;-77
2023/12/16 03:22:44;;;;;;;6.50;4.47;;;;;;;8.02;80.32;102989.28;4991748;28;20648;-76
2023/12/16 03:25:10;;;;;;;8.27;4.17;;;;;;;7.94;80.70;102996.81;4992290;28;20218;-76
2023/12/16 03:27:37;;;;;;;9.37;4.60;;;;;;;7.69;80.98;102995.09;4992233;28;20276;-76
2023/12/16 03:30:04;;;;;;;10.40;4.93;;;;;;;7.94;81.95;102965.63;4992030;28;20295;-77
2023/12/16 03:32:32;;;;;;;9.73;4.73;;;;;;;8.06;81.06;102963.41;4992449;28;20227;-76
2023/12/16 03:34:58;;;;;;;10.87;4.83;;;;;;;8.00;81.21;102980.53;4992108;28;20238;-77
2023/12/16 03:37:24;;;;;;;13.27;5.17;;;;;;;7.99;81.01;102978.75;4991734;28;20256;-77
2023/12/16 03:39:51;;;;;;;8.60;5.00;;;;;;;7.88;81.35;102981.88;4992244;28;20237;-77
2023/12/16 03:42:17;;;;;;;9.60;5.77;;;;;;;7.97;82.14;102960.53;4991600;28;20308;-77
2023/12/16 03:44:46;;;;;;;12.97;6.43;;;;;;;7.85;82.17;102949.69;4992389;28;20205;-76
2023/12/16 03:47:13;;;;;;;12.50;6.03;;;;;;;8.03;82.12;102944.25;4991868;28;20234;-76
2023/12/16 03:49:40;;;;;;;11.33;6.37;;;;;;;7.99;82.04;102943.25;4992416;28;20210;-77
2023/12/16 03:52:07;;;;;;;11.83;5.73;;;;;;;8.10;81.42;102953.97;4991587;28;20567;-77
2023/12/16 03:54:33;;;;;;;11.13;5.43;;;;;;;8.09;81.58;102942.69;4991462;28;20202;-76
2023/12/16 03:56:59;;;;;;;8.80;5.70;;;;;;;8.04;81.52;102953.78;4991873;28;20207;-76
2023/12/16 03:59:26;;;;;;;8.57;4.97;;;;;;;8.00;81.04;102959.72;4992038;28;20736;-77
2023/12/16 04:01:52;;;;;;;11.00;5.63;;;;;;;8.16;81.15;102956.78;4991807;28;20258;-77
2023/12/16 04:04:19;;;;;;;8.37;5.73;;;;;;;8.07;81.19;102964.31;4991458;28;20290;-76
2023/12/16 04:06:47;;;;;;;11.83;5.57;;;;;;;8.11;80.86;102960.97;4991550;28;20284;-76
2023/12/16 04:09:13;;;;;;;8.67;5.43;;;;;;;7.89;80.97;102980.19;4991065;28;20671;-77
2023/12/16 04:11:46;;;;;;;8.77;5.23;;;;;;;8.08;81.19;102966.06;4991501;28;20212;-76
2023/12/16 04:14:12;;;;;;;7.87;4.80;;;;;;;7.89;81.51;102965.47;4991075;28;20223;-77
2023/12/16 04:16:39;;;;;;;11.23;4.90;;;;;;;7.76;80.92;102973.69;4991725;28;20264;-77
2023/12/16 04:19:05;;;;;;;10.63;4.33;;;;;;;7.79;80.55;102980.69;4992342;28;20254;-76
2023/12/16 04:21:32;;;;;;;13.57;4.43;;;;;;;7.86;80.83;102980.09;4995156;28;20210;-77
2023/12/16 04:24:00;;;;;;;7.63;4.43;;;;;;;7.84;80.50;102980.03;4995511;28;20224;-77
2023/12/16 04:26:26;;;;;;;8.53;4.43;;;;;;;7.88;80.05;102992.28;4988323;28;20227;-76
2023/12/16 04:28:53;;;;;;;16.27;5.07;;;;;;;7.95;79.64;102999.47;4995408;28;20254;-76
2023/12/16 04:31:19;;;;;;;8.43;4.47;;;;;;;8.12;80.02;102986.13;4995814;28;20213;-77
2023/12/16 04:33:46;;;;;;;6.67;3.63;;;;;;;7.91;78.89;103001.94;4995545;28;20229;-77
2023/12/16 04:36:14;;;;;;;7.53;3.40;;;;;;;8.23;79.30;102984.78;4994867;28;20211;-76
2023/12/16 04:38:40;;;;;;;9.33;4.03;;;;;;;8.05;78.53;103005.00;4995429;28;20225;-76
2023/12/16 04:41:11;;;;;;;10.83;3.90;;;;;;;8.21;78.56;103007.25;4995559;28;20677;-77
2023/12/16 04:43:37;;;;;;;5.57;3.40;;;;;;;8.14;78.31;103020.88;4995247;28;20235;-76
2023/12/16 04:46:04;;;;;;;8.47;3.73;;;;;;;7.96;78.08;103054.97;4995214;28;20656;-76
2023/12/16 04:48:30;;;;;;;8.00;3.33;;;;;;;8.19;77.85;103045.34;4995482;28;20694;-76
2023/12/16 04:50:57;;;;;;;8.27;3.67;;;;;;;8.06;77.81;103050.97;4994950;28;20564;-77
2023/12/16 04:53:23;;;;;;;7.07;3.53;;;;;;;8.19;78.14;103055.75;4994513;28;20635;-76
2023/12/16 04:55:50;;;;;;;6.20;3.63;;;;;;;8.23;78.27;103055.03;4995489;28;20210;-76
2023/12/16 04:58:18;;;;;;;8.93;3.70;;;;;;;8.31;77.98;103063.97;4995143;28;20231;-77
2023/12/16 05:00:44;;;;;;;8.13;3.67;;;;;;;7.89;78.64;103090.28;4994967;28;20204;-76
2023/12/16 05:03:12;;;;;;;8.70;4.13;;;;;;;7.72;78.77;103087.09;4995013;28;20413;-77
2023/12/16 05:05:38;;;;;;;9.13;4.03;;;;;;;7.91;78.95;103062.63;4995495;28;20646;-76
2023/12/16 05:08:04;;;;;;;9.07;4.57;;;;;;;8.00;79.37;103064.66;4995438;28;20283;-77
2023/12/16 05:10:31;;;;;;;13.53;5.07;;;;;;;8.01;79.33;103074.22;4999887;28;20207;-77
2023/12/16 05:12:57;;;;;;;8.60;4.63;;;;;;;7.82;79.09;103075.31;4997542;28;20279;-77
2023/12/16 05:15:25;;;;;;;9.53;5.27;;;;;;;7.97;79.76;103059.34;4995531;28;20203;-77
2023/12/16 05:17:51;;;;;;;10.00;5.43;;;;;;;8.02;79.61;103054.31;4995290;28;20233;-78
2023/12/16 05:20:17;;;;;;;10.40;5.03;;;;;;;7.85;79.42;103059.81;4995485;28;20241;-77
2023/12/16 05:22:44;;;;;;;10.87;6.20;;;;;;;7.72;79.93;103058.50;4995137;28;20284;-77
2023/12/16 05:25:11;;;;;;;12.93;6.10;;;;;;;7.76;80.03;103043.88;4995313;28;20213;-77
2023/12/16 05:27:37;;;;;;;13.53;5.83;;;;;;;7.88;79.99;103038.22;4995404;28;20227;-77
2023/12/16 05:30:04;;;;;;;10.37;5.67;;;;;;;7.90;79.86;103033.97;4994834;28;20203;-77
2023/12/16 05:32:32;;;;;;;14.50;5.80;;;;;;;7.67;79.39;103053.94;4995053;28;20256;-77
2023/12/16 05:34:58;;;;;;;11.30;6.30;;;;;;;7.93;79.39;103050.56;4994556;28;20731;-77
2023/12/16 05:37:25;;;;;;;9.03;6.10;;;;;;;7.83;79.47;103053.69;4994665;28;20264;-76
2023/12/16 05:39:51;;;;;;;11.87;6.30;;;;;;;7.71;79.91;103048.94;4995432;28;20246;-77
2023/12/16 05:42:17;;;;;;;10.40;6.23;;;;;;;7.75;80.57;103031.72;4994805;28;20264;-77
2023/12/16 05:44:44;;;;;;;7.80;5.80;;;;;;;7.86;80.16;103032.09;4994899;28;20207;-77
2023/12/16 05:47:10;;;;;;;13.70;6.97;;;;;;;7.79;79.94;103043.09;4994286;28;20783;-77
2023/12/16 05:49:38;;;;;;;11.80;6.77;;;;;;;7.78;79.96;103044.81;4994970;28;20206;-77
2023/12/16 05:52:05;;;;;;;14.73;7.23;;;;;;;7.59;80.50;103058.00;4994146;28;20205;-77
2023/12/16 05:54:31;;;;;;;9.80;5.57;;;;;;;7.77;79.72;103043.06;4995017;28;20208;-76
2023/12/16 05:56:58;;;;;;;9.50;5.83;;;;;;;7.66;79.57;103055.69;4994826;28;20603;-77
2023/12/16 05:59:24;;;;;;;13.07;6.10;;;;;;;7.71;79.55;103048.94;4994407;28;20217;-77
2023/12/16 06:01:50;;;;;;;6.87;5.23;;;;;;;7.83;79.25;103053.69;4994561;28;20214;-77
2023/12/16 06:04:17;;;;;;;9.17;4.90;;;;;;;7.83;78.06;103083.97;4994360;28;20602;-77
2023/12/16 06:06:44;;;;;;;9.90;4.80;;;;;;;7.84;77.97;103097.03;4989770;28;20205;-77
2023/12/16 06:09:11;;;;;;;8.13;5.27;;;;;;;8.08;78.21;103099.59;4994886;28;20627;-77
2023/12/16 06:11:38;;;;;;;9.30;4.87;;;;;;;7.83;77.92;103105.69;4994582;28;20206;-77
2023/12/16 06:14:04;;;;;;;9.63;4.87;;;;;;;7.82;77.75;103113.44;4993829;28;20223;-77
2023/12/16 06:16:30;;;;;;;10.77;4.17;;;;;;;7.99;77.76;103121.81;4993630;28;20204;-77
2023/12/16 06:18:57;;;;;;;7.13;4.53;;;;;;;8.15;78.39;103117.19;4994678;28;20245;-77
2023/12/16 06:21:24;;;;;;;12.20;4.20;;;;;;;8.18;78.38;103106.00;4993815;28;20222;-77
2023/12/16 06:23:51;;;;;;;8.37;4.10;;;;;;;8.17;80.10;103091.25;4994358;28;20219;-77
2023/12/16 06:26:18;;;;;;;8.40;4.10;;;;;;;7.88;78.90;103085.03;4994658;28;20205;-78
2023/12/16 06:28:44;;;;;;;9.87;3.53;;;;;;;8.13;79.23;103087.66;4994427;28;20712;-77
2023/12/16 06:31:15;;;;;;;8.80;3.60;;;;;;;7.67;79.10;103095.53;4994503;28;20678;-78
2023/12/16 06:33:42;;;;;;;9.60;3.97;;;;;;;8.00;78.42;103105.38;4995743;28;20293;-78
2023/12/16 06:36:08;;;;;;;7.07;3.23;;;;;;;7.91;79.97;103093.84;4994148;28;20633;-77
2023/12/16 06:38:35;;;;;;;11.50;4.00;;;;;;;8.04;80.77;103071.72;4990371;28;20272;-78
2023/12/16 06:41:03;;;;;;;11.80;3.60;;;;;;;8.09;81.53;103036.34;4994606;28;20200;-78
2023/12/16 06:43:30;;;;;;;8.53;4.13;;;;;;;8.05;79.66;103054.41;4993117;28;20258;-77
2023/12/16 06:45:56;;;;;;;8.67;3.47;;;;;;;8.02;78.00;103096.78;4994318;28;20266;-78
2023/12/16 06:48:22;;;;;;;8.20;3.37;;;;;;;7.86;78.44;103104.91;4994463;28;20227;-78
2023/12/16 06:50:49;;;;;;;11.73;5.33;;;;;;;7.85;77.93;103111.81;4994258;28;20277;-78
2023/12/16 06:53:15;;;;;;;11.10;4.17;;;;;;;7.78;78.85;103133.22;4993528;28;20612;-77
2023/12/16 06:55:42;;;;;;;9.70;4.77;;;;;;;7.69;78.79;103122.47;4994407;28;20203;-77
2023/12/16 06:58:10;;;;;;;9.63;4.10;;;;;;;7.56;79.22;103114.25;4994051;28;20666;-77
2023/12/16 07:00:36;;;;;;;11.27;3.87;;;;;;;7.40;81.30;103098.03;4985840;28;20241;-78
2023/12/16 07:03:03;;;;;;;10.87;3.50;;;;;;;7.58;80.48;103087.44;4993816;28;20225;-77
2023/12/16 07:05:31;;;;;;;9.10;3.97;;;;;;;7.72;81.08;103063.69;4993894;28;20245;-78
2023/12/16 07:07:57;;;;;;;8.33;3.70;;;;;;;7.67;82.00;103048.75;4993538;28;20221;-77
2023/12/16 07:10:23;;;;;;;8.07;3.93;;;;;;;7.95;81.04;103032.41;4994128;28;20215;-78
2023/12/16 07:12:50;;;;;;;11.77;4.33;;;;;;;8.01;82.43;103005.69;4993745;28;20222;-78
2023/12/16 07:15:20;;;;;;;16.90;3.70;;;;;;;8.06;81.14;103025.81;4994095;28;20206;-78
2023/12/16 07:17:47;;;;;;;9.57;3.77;;;;;;;7.59;80.55;103065.78;4994396;28;20207;-77
2023/12/16 07:20:13;;;;;;;5.90;3.40;;;;;;;7.66;80.33;103057.41;4993748;28;20216;-78
2023/12/16 07:22:40;;;;;;;6.37;3.40;;;;;;;7.90;81.16;103045.25;4993639;28;20223;-78
2023/12/16 07:25:07;;;;;;;5.80;3.20;;;;;;;7.93;81.90;103029.75;4994735;28;20205;-79
2023/12/16 07:27:34;;;;;;;7.47;3.67;;;;;;;7.88;82.75;103001.81;4994757;28;20256;-78
2023/12/16 07:30:00;;;;;;;12.13;4.53;;;;;;;8.01;82.45;102984.88;4993873;28;20436;-78
2023/12/16 07:32:28;;;;;;;5.47;3.00;;;;;;;7.91;82.75;102983.72;4994755;28;20282;-78
2023/12/16 07:34:54;;;;;;;10.30;3.23;;;;;;;7.93;82.98;102975.13;4994541;28;20203;-78
2023/12/16 07:37:21;;;;;;;7.73;4.10;;;;;;;7.94;82.00;102989.03;4994316;28;20238;-78
2023/12/16 07:39:47;;;;;;;9.23;3.00;;;;;;;7.96;82.46;102993.44;4993405;28;20269;-79
2023/12/16 07:42:14;;;;;;;7.30;2.80;;;;;;;7.90;81.47;103000.16;4994185;28;20236;-79
2023/12/16 07:44:40;;;;;;;9.37;2.60;;;;;;;7.92;81.58;103003.69;4994071;28;20207;-79
2023/12/16 07:47:07;;;;;;;8.43;3.10;;;;;;;7.81;81.24;103018.94;4994307;28;20254;-78
2023/12/16 07:49:34;;;;;;;9.23;3.40;;;;;;;7.70;80.14;103044.56;4994719;28;20664;-78
2023/12/16 07:52:01;;;;;;;6.73;3.10;;;;;;;7.75;80.78;103040.41;4993817;28;20662;-79
2023/12/16 07:54:28;;;;;;;8.70;2.90;;;;;;;7.72;80.99;103049.81;4993248;28;20824;-78
2023/12/16 07:56:54;;;;;;;4.87;2.33;;;;;;;7.62;80.88;103051.19;4993692;28;20604;-78
2023/12/16 07:59:21;;;;;;;7.93;2.80;;;;;;;7.64;80.60;103046.06;4985431;28;20203;-77
2023/12/16 08:01:49;;;;;;;8.27;2.90;;;;;;;7.66;80.35;103053.06;4989544;28;20204;-77
2023/12/16 08:04:15;;;;;;;6.93;3.17;;;;;;;7.58;79.04;103072.72;4994024;28;20649;-78
2023/12/16 08:06:43;;;;;;;9.20;2.83;;;;;;;7.69;79.72;103083.50;4993079;28;20218;-78
2023/12/16 08:09:09;;;;;;;11.73;4.03;;;;;;;7.74;79.00;103090.63;4993928;28;20266;-79
2023/12/16 08:11:36;;;;;;;6.37;2.57;;;;;;;7.66;79.79;103084.28;4993990;28;20773;-78
2023/12/16 08:14:02;;;;;;;4.40;2.70;;;;;;;7.66;78.11;103086.88;4993683;28;20234;-78
2023/12/16 08:16:29;;;;;;;8.80;2.80;;;;;;;7.53;78.04;103110.66;4994019;28;20211;-78
2023/12/16 08:18:55;;;;;;;7.30;2.63;;;;;;;7.59;78.31;103109.97;4993640;28;20231;-79
2023/12/16 08:21:21;;;;;;;8.20;2.90;;;;;;;7.55;78.41;103098.59;4993123;28;20210;-78
2023/12/16 08:23:49;;;;;;;7.10;2.73;;;;;;;7.49;78.75;103099.28;4993897;28;20225;-78
2023/12/16 08:26:15;;;;;;;7.47;3.27;;;;;;;7.65;78.17;103095.50;4994116;28;20203;-78
2023/12/16 08:28:41;;;;;;;8.67;3.40;;;;;;;7.62;77.62;103105.78;4993467;28;20574;-79
2023/12/16 08:31:08;;;;;;;10.03;3.80;;;;;;;7.69;77.34;103107.78;4993865;28;20206;-78
2023/12/16 08:33:35;;;;;;;8.93;3.47;;;;;;;7.79;77.20;103121.09;4993794;28;20254;-78
2023/12/16 08:36:01;;;;;;;9.23;3.40;;;;;;;7.80;76.79;103136.75;4994479;28;20224;-78
2023/12/16 08:38:28;;;;;;;9.93;2.80;;;;;;;7.89;76.63;103151.84;4994512;28;20707;-78
2023/12/16 08:40:57;;;;;;;6.23;2.63;;;;;;;7.94;76.54;103158.94;4994211;28;20217;-78
2023/12/16 08:43:24;;;;;;;7.37;2.93;;;;;;;7.82;75.90;103175.84;4993716;28;20267;-78
2023/12/16 08:45:50;;;;;;;8.73;2.80;;;;;;;7.93;76.76;103171.91;4985969;28;20759;-78
2023/12/16 08:48:17;;;;;;;7.30;3.40;;;;;;;7.90;76.64;103182.19;4994727;28;20233;-79
2023/12/16 08:50:43;;;;;;;9.83;2.67;;;;;;;8.02;76.45;103176.56;4993813;28;20214;-78
2023/12/16 08:53:10;;;;;;;12.00;3.20;;;;;;;8.06;76.77;103174.09;4993441;28;20229;-78
2023/12/16 08:55:37;;;;;;;10.67;2.80;;;;;;;8.16;76.69;103177.91;4993526;28;20215;-79
2023/12/16 08:58:05;;;;;;;10.60;3.23;;;;;;;8.13;75.90;103175.22;4993978;28;20200;-78
2023/12/16 09:00:31;;;;;;;5.57;3.00;;;;;;;8.13;76.51;103180.44;4991959;28;20657;-78
2023/12/16 09:02:57;;;;;;;7.73;3.20;;;;;;;8.19;76.79;103165.03;4988054;28;20229;-79
2023/12/16 09:05:26;;;;;;;9.90;3.00;;;;;;;8.16;76.45;103157.97;4994052;28;20265;-78
2023/12/16 09:07:53;;;;;;;9.30;2.87;;;;;;;8.06;75.75;103174.09;4997277;28;20655;-78
2023/12/16 09:10:19;;;;;;;11.23;3.00;;;;;;;8.30;76.45;103175.81;4997277;28;20264;-79
2023/12/16 09:12:47;;;;;;;5.60;2.57;;;;;;;8.38;76.36;103176.94;4989104;28;20279;-78
2023/12/16 09:15:16;;;;;;;6.40;3.20;;;;;;;8.51;76.63;103163.56;4996926;28;20286;-78
2023/12/16 09:17:43;;;;;;;12.90;2.70;;;;;;;8.24;75.88;103179.06;4996940;28;20579;-79
2023/12/16 09:20:10;;;;;;;9.57;3.20;;;;;;;8.33;75.48;103179.41;4996702;28;20206;-78
2023/12/16 09:22:37;;;;;;;5.93;2.80;;;;;;;8.46;76.11;103167.75;4996010;28;20238;-77
2023/12/16 09:25:04;;;;;;;11.97;6.10;;;;;;;8.53;75.63;103174.91;4996931;28;20207;-78
2023/12/16 09:27:31;;;;;;;13.23;3.73;;;;;;;8.67;75.04;103192.72;4996944;28;20213;-78
2023/12/16 09:29:57;;;;;;;8.80;3.40;;;;;;;8.80;74.89;103194.00;4996873;28;20331;-78
2023/12/16 09:32:25;;;;;;;8.23;3.43;;;;;;;8.70;73.79;103214.53;4997052;28;20234;-78
2023/12/16 09:34:51;;;;;;;11.00;2.87;;;;;;;8.67;75.29;103224.84;4996814;28;20238;-79
2023/12/16 09:37:17;;;;;;;7.87;3.60;;;;;;;8.75;74.73;103225.09;4995450;28;20270;-78
2023/12/16 09:39:44;;;;;;;5.07;2.80;;;;;;;8.39;73.99;103233.38;4993746;28;20204;-78
2023/12/16 09:42:12;;;;;;;4.47;2.30;;;;;;;8.42;75.32;103237.84;4990513;28;20720;-79
2023/12/16 09:44:38;;;;;;;9.17;3.57;;;;;;;8.84;75.09;103204.59;4996121;28;20213;-79
2023/12/16 09:47:08;;;;;;;10.37;3.43;;;;;;;8.78;74.58;103226.91;4996293;28;20237;-78
2023/12/16 09:49:38;;;;;;;7.03;3.40;;;;;;;8.72;74.75;103231.09;4996242;28;20733;-78
2023/12/16 09:52:05;;;;;;;5.50;3.00;;;;;;;8.58;75.08;103234.94;4995642;28;20199;-78
2023/12/16 09:54:32;;;;;;;8.87;3.10;;;;;;;8.90;75.45;103214.28;4996227;28;20266;-79
2023/12/16 09:57:00;;;;;;;9.70;3.13;;;;;;;8.83;75.06;103215.81;4996144;28;20636;-79
2023/12/16 09:59:30;;;;;;;7.27;3.17;;;;;;;9.00;75.68;103216.38;4996391;28;20208;-79
2023/12/16 10:01:59;;;;;;;8.97;3.50;;;;;;;9.03;75.54;103207.78;4996505;28;20648;-78
2023/12/16 10:04:27;;;;;;;6.83;3.30;;;;;;;9.18;75.29;103199.53;4998763;28;20215;-78
2023/12/16 10:06:55;;;;;;;10.63;3.67;;;;;;;8.99;75.33;103201.56;4999987;28;20206;-78
2023/12/16 10:09:21;;;;;;;8.93;3.33;;;;;;;8.68;75.51;103203.19;5000277;28;20274;-78
2023/12/16 10:11:51;;;;;;;8.20;2.80;;;;;;;9.04;75.79;103191.28;5000291;28;20683;-78
2023/12/16 10:14:18;;;;;;;7.13;3.17;;;;;;;8.88;76.14;103198.63;5000973;28;20667;-79
2023/12/16 10:16:46;;;;;;;8.53;3.43;;;;;;;9.03;76.42;103176.50;4999193;28;20212;-78
2023/12/16 10:19:13;;;;;;;7.67;3.13;;;;;;;9.23;76.96;103157.16;5000027;28;20207;-78
2023/12/16 10:21:41;;;;;;;7.77;3.70;;;;;;;9.23;76.75;103153.66;4995543;28;20199;-79
2023/12/16 10:24:09;;;;;;;8.20;4.30;;;;;;;9.22;76.35;103151.91;4995579;28;20229;-78
2023/12/16 10:26:42;;;;;;;8.40;3.70;;;;;;;9.21;76.51;103143.19;4986944;28;20204;-77
2023/12/16 10:29:08;;;;;;;8.00;3.70;;;;;;;9.30;76.71;103127.84;4994524;28;20231;-78
2023/12/16 10:31:35;;;;;;;7.97;3.87;;;;;;;9.41;76.58;103125.53;4994368;28;20266;-77
2023/12/16 10:34:02;;;;;;;7.80;3.10;;;;;;;9.44;76.44;103120.44;4994813;28;20779;-77
2023/12/16 10:36:29;;;;;;;10.23;4.10;;;;;;;9.55;76.73;103112.91;4993774;28;20221;-80
2023/12/16 10:38:56;;;;;;;13.97;3.60;;;;;;;9.44;76.71;103119.56;4995412;28;20721;-77
2023/12/16 10:41:23;;;;;;;9.90;4.20;;;;;;;9.58;76.31;103119.94;4991103;28;20208;-78
2023/12/16 10:43:50;;;;;;;11.27;3.37;;;;;;;9.61;75.97;103126.09;4988480;28;20231;-77
2023/12/16 10:46:18;;;;;;;9.97;3.90;;;;;;;9.50;75.87;103127.53;4986702;28;20219;-78
2023/12/16 10:48:47;;;;;;;10.00;3.33;;;;;;;9.67;75.57;103125.41;4989014;28;20725;-77
2023/12/16 10:51:15;;;;;;;8.37;3.20;;;;;;;9.56;75.98;103125.13;4985871;28;20215;-78
2023/12/16 10:53:46;;;;;;;9.40;3.30;;;;;;;9.63;75.92;103116.63;4988288;28;20230;-78
2023/12/16 10:56:18;;;;;;;8.47;3.17;;;;;;;9.73;75.60;103122.97;4986742;28;20217;-78
2023/12/16 10:58:50;;;;;;;13.67;3.67;;;;;;;9.77;75.89;103105.69;4987684;28;20230;-78
2023/12/16 11:01:18;;;;;;;11.07;3.30;;;;;;;9.62;75.41;103108.75;4986838;28;20208;-78
2023/12/16 11:03:50;;;;;;;10.23;4.20;;;;;;;9.36;75.49;103105.41;4990038;28;20227;-77
2023/12/16 11:06:21;;;;;;;10.40;3.03;;;;;;;9.64;75.77;103097.53;4994577;28;20207;-78
2023/12/16 11:08:49;;;;;;;10.07;3.77;;;;;;;9.96;75.72;103078.38;4994566;28;20227;-78
2023/12/16 11:11:19;;;;;;;9.70;3.57;;;;;;;10.00;75.69;103064.56;4994954;28;20624;-78
2023/12/16 11:13:50;;;;;;;8.67;2.93;;;;;;;9.66;75.24;103084.53;4994692;28;20231;-78
2023/12/16 11:16:24;;;;;;;18.07;3.97;;;;;;;9.76;74.80;103089.16;4996124;28;20215;-79
2023/12/16 11:18:53;;;;;;;12.10;3.97;;;;;;;9.89;75.46;103075.59;4995733;28;20293;-78
2023/12/16 11:21:22;;;;;;;9.00;2.90;;;;;;;9.57;75.38;103084.25;4994883;28;20208;-78
2023/12/16 11:23:49;;;;;;;10.13;3.67;;;;;;;9.87;75.30;103063.34;4995316;28;20277;-78
2023/12/16 11:26:17;;;;;;;8.60;3.63;;;;;;;9.93;75.38;103053.97;4996421;28;20215;-79
2023/12/16 11:28:43;;;;;;;12.17;3.30;;;;;;;9.96;75.49;103054.88;4991412;28;20228;-79